sensor_id;sensor_type;location;lat;lon;timestamp;pressure;altitude;pressure_sealevel;temperature;humidity
63715;BME280;49858;48.956;9.076;2023-07-31T00:00:02;98795.56;;;18.18;100.00
63715;BME280;49858;48.956;9.076;2023-07-31T00:02:31;98790.84;;;18.08;100.00
63715;BME280;49858;48.956;9.076;2023-07-31T00:05:00;98786.22;;;17.44;100.00
63715;BME280;49858;48.956;9.076;2023-07-31T00:07:28;98793.00;;;17.50;100.00
63715;BME280;49858;48.956;9.076;2023-07-31T00:09:56;98790.34;;;18.31;100.00
63715;BME280;49858;48.956;9.076;2023-07-31T00:12:24;98798.19;;;18.50;100.00
63715;BME280;49858;48.956;9.076;2023-07-31T00:14:54;98804.88;;;18.63;100.00
63715;BME280;49858;48.956;9.076;2023-07-31T00:17:22;98799.88;;;18.30;100.00
63715;BME280;49858;48.956;9.076;2023-07-31T00:19:51;98797.94;;;18.20;100.00
63715;BME280;49858;48.956;9.076;2023-07-31T00:22:19;98806.66;;;18.29;100.00
63715;BME280;49858;48.956;9.076;2023-07-31T00:24:47;98808.38;;;17.98;100.00
63715;BME280;49858;48.956;9.076;2023-07-31T00:27:15;98805.63;;;17.73;100.00
63715;BME280;49858;48.956;9.076;2023-07-31T00:29:43;98806.47;;;17.70;100.00
63715;BME280;49858;48.956;9.076;2023-07-31T00:32:11;98807.59;;;17.90;100.00
63715;BME280;49858;48.956;9.076;2023-07-31T00:34:38;98801.31;;;17.75;100.00
63715;BME280;49858;48.956;9.076;2023-07-31T00:37:08;98817.13;;;17.96;100.00
63715;BME280;49858;48.956;9.076;2023-07-31T00:39:35;98811.25;;;17.48;100.00
63715;BME280;49858;48.956;9.076;2023-07-31T00:42:05;98808.03;;;17.63;100.00
63715;BME280;49858;48.956;9.076;2023-07-31T00:44:33;98802.47;;;17.88;100.00
63715;BME280;49858;48.956;9.076;2023-07-31T00:47:04;98804.13;;;17.47;100.00
63715;BME280;49858;48.956;9.076;2023-07-31T00:49:32;98806.06;;;17.64;100.00
63715;BME280;49858;48.956;9.076;2023-07-31T00:52:00;98794.19;;;17.42;100.00
63715;BME280;49858;48.956;9.076;2023-07-31T00:54:30;98786.63;;;17.50;100.00
63715;BME280;49858;48.956;9.076;2023-07-31T00:56:59;98783.72;;;17.96;100.00
63715;BME280;49858;48.956;9.076;2023-07-31T00:59:27;98788.16;;;17.79;100.00
63715;BME280;49858;48.956;9.076;2023-07-31T01:01:55;98790.56;;;17.70;100.00
63715;BME280;49858;48.956;9.076;2023-07-31T01:04:23;98789.72;;;17.87;100.00
63715;BME280;49858;48.956;9.076;2023-07-31T01:06:55;98786.97;;;17.77;100.00
63715;BME280;49858;48.956;9.076;2023-07-31T01:09:36;98777.50;;;17.42;100.00
63715;BME280;49858;48.956;9.076;2023-07-31T01:12:06;98783.03;;;17.49;100.00
63715;BME280;49858;48.956;9.076;2023-07-31T01:14:35;98780.66;;;17.48;100.00
63715;BME280;49858;48.956;9.076;2023-07-31T01:17:03;98777.13;;;17.26;100.00
63715;BME280;49858;48.956;9.076;2023-07-31T01:19:31;98764.81;;;17.41;100.00
63715;BME280;49858;48.956;9.076;2023-07-31T01:22:39;98761.97;;;17.59;100.00
63715;BME280;49858;48.956;9.076;2023-07-31T01:25:35;98763.22;;;17.26;100.00
63715;BME280;49858;48.956;9.076;2023-07-31T01:28:11;98762.47;;;17.18;100.00
63715;BME280;49858;48.956;9.076;2023-07-31T01:30:43;98763.25;;;17.19;100.00
63715;BME280;49858;48.956;9.076;2023-07-31T01:33:12;98760.47;;;17.01;100.00
63715;BME280;49858;48.956;9.076;2023-07-31T01:35:44;98763.63;;;17.21;100.00
63715;BME280;49858;48.956;9.076;2023-07-31T01:38:12;98755.59;;;17.58;100.00
63715;BME280;49858;48.956;9.076;2023-07-31T01:40:41;98749.69;;;17.42;100.00
63715;BME280;49858;48.956;9.076;2023-07-31T01:43:10;98758.03;;;17.42;100.00
63715;BME280;49858;48.956;9.076;2023-07-31T01:45:38;98756.09;;;17.25;100.00
63715;BME280;49858;48.956;9.076;2023-07-31T01:48:06;98757.63;;;17.44;100.00
63715;BME280;49858;48.956;9.076;2023-07-31T01:50:34;98750.44;;;17.57;100.00
63715;BME280;49858;48.956;9.076;2023-07-31T01:53:03;98742.09;;;17.57;100.00
63715;BME280;49858;48.956;9.076;2023-07-31T01:55:31;98742.94;;;17.36;100.00
63715;BME280;49858;48.956;9.076;2023-07-31T01:57:59;98742.50;;;17.59;100.00
63715;BME280;49858;48.956;9.076;2023-07-31T02:00:28;98739.72;;;17.59;100.00
63715;BME280;49858;48.956;9.076;2023-07-31T02:02:56;98739.81;;;17.20;100.00
63715;BME280;49858;48.956;9.076;2023-07-31T02:05:24;98725.47;;;17.46;100.00
63715;BME280;49858;48.956;9.076;2023-07-31T02:07:52;98730.13;;;17.71;100.00
63715;BME280;49858;48.956;9.076;2023-07-31T02:10:20;98721.47;;;17.44;100.00
63715;BME280;49858;48.956;9.076;2023-07-31T02:12:47;98727.00;;;17.61;100.00
63715;BME280;49858;48.956;9.076;2023-07-31T02:15:15;98732.59;;;17.47;100.00
63715;BME280;49858;48.956;9.076;2023-07-31T02:17:45;98717.78;;;17.86;100.00
63715;BME280;49858;48.956;9.076;2023-07-31T02:20:13;98726.03;;;18.04;100.00
63715;BME280;49858;48.956;9.076;2023-07-31T02:22:40;98719.41;;;17.83;100.00
63715;BME280;49858;48.956;9.076;2023-07-31T02:25:08;98708.94;;;18.02;100.00
63715;BME280;49858;48.956;9.076;2023-07-31T02:27:36;98704.97;;;18.03;100.00
63715;BME280;49858;48.956;9.076;2023-07-31T02:30:05;98704.28;;;18.47;100.00
63715;BME280;49858;48.956;9.076;2023-07-31T02:32:33;98701.75;;;18.71;100.00
63715;BME280;49858;48.956;9.076;2023-07-31T02:35:04;98693.91;;;18.55;100.00
63715;BME280;49858;48.956;9.076;2023-07-31T02:37:33;98691.56;;;18.46;100.00
63715;BME280;49858;48.956;9.076;2023-07-31T02:40:02;98687.56;;;18.51;100.00
63715;BME280;49858;48.956;9.076;2023-07-31T02:42:33;98692.59;;;18.67;100.00
63715;BME280;49858;48.956;9.076;2023-07-31T02:45:01;98679.31;;;18.88;100.00
63715;BME280;49858;48.956;9.076;2023-07-31T02:47:29;98681.41;;;18.77;100.00
63715;BME280;49858;48.956;9.076;2023-07-31T02:49:57;98684.22;;;18.74;100.00
63715;BME280;49858;48.956;9.076;2023-07-31T02:52:27;98678.53;;;18.84;100.00
63715;BME280;49858;48.956;9.076;2023-07-31T02:54:55;98685.63;;;18.93;100.00
63715;BME280;49858;48.956;9.076;2023-07-31T02:57:23;98679.28;;;18.92;100.00
63715;BME280;49858;48.956;9.076;2023-07-31T02:59:50;98676.13;;;18.86;100.00
63715;BME280;49858;48.956;9.076;2023-07-31T03:02:18;98682.91;;;18.85;100.00
63715;BME280;49858;48.956;9.076;2023-07-31T03:04:48;98682.88;;;18.37;100.00
63715;BME280;49858;48.956;9.076;2023-07-31T03:07:16;98690.38;;;18.44;100.00
63715;BME280;49858;48.956;9.076;2023-07-31T03:09:45;98694.31;;;17.91;100.00
63715;BME280;49858;48.956;9.076;2023-07-31T03:12:14;98695.91;;;17.88;100.00
63715;BME280;49858;48.956;9.076;2023-07-31T03:14:42;98690.13;;;18.27;100.00
63715;BME280;49858;48.956;9.076;2023-07-31T03:17:10;98692.34;;;18.50;100.00
63715;BME280;49858;48.956;9.076;2023-07-31T03:19:38;98688.81;;;18.39;100.00
63715;BME280;49858;48.956;9.076;2023-07-31T03:22:06;98690.78;;;18.94;100.00
63715;BME280;49858;48.956;9.076;2023-07-31T03:24:34;98685.56;;;17.88;100.00
63715;BME280;49858;48.956;9.076;2023-07-31T03:27:04;98681.25;;;18.39;100.00
63715;BME280;49858;48.956;9.076;2023-07-31T03:29:33;98684.53;;;18.31;100.00
63715;BME280;49858;48.956;9.076;2023-07-31T03:32:00;98686.59;;;18.75;100.00
63715;BME280;49858;48.956;9.076;2023-07-31T03:34:29;98685.44;;;18.65;100.00
63715;BME280;49858;48.956;9.076;2023-07-31T03:36:58;98684.53;;;18.27;100.00
63715;BME280;49858;48.956;9.076;2023-07-31T03:39:29;98687.09;;;18.00;100.00
63715;BME280;49858;48.956;9.076;2023-07-31T03:42:00;98685.66;;;17.74;100.00
63715;BME280;49858;48.956;9.076;2023-07-31T03:44:30;98680.28;;;18.08;100.00
63715;BME280;49858;48.956;9.076;2023-07-31T03:46:58;98689.97;;;17.82;100.00
63715;BME280;49858;48.956;9.076;2023-07-31T03:49:26;98682.28;;;18.08;100.00
63715;BME280;49858;48.956;9.076;2023-07-31T03:51:54;98685.84;;;18.12;100.00
63715;BME280;49858;48.956;9.076;2023-07-31T03:54:22;98687.59;;;17.84;100.00
63715;BME280;49858;48.956;9.076;2023-07-31T03:56:50;98679.88;;;18.10;100.00
63715;BME280;49858;48.956;9.076;2023-07-31T03:59:21;98670.66;;;18.20;100.00
63715;BME280;49858;48.956;9.076;2023-07-31T04:01:50;98668.66;;;18.21;100.00
63715;BME280;49858;48.956;9.076;2023-07-31T04:04:18;98674.66;;;18.16;100.00
63715;BME280;49858;48.956;9.076;2023-07-31T04:06:46;98681.53;;;17.97;100.00
63715;BME280;49858;48.956;9.076;2023-07-31T04:09:14;98682.81;;;17.85;100.00
63715;BME280;49858;48.956;9.076;2023-07-31T04:11:42;98685.44;;;17.04;100.00
63715;BME280;49858;48.956;9.076;2023-07-31T04:14:09;98683.75;;;17.46;100.00
63715;BME280;49858;48.956;9.076;2023-07-31T04:16:37;98675.53;;;16.68;100.00
63715;BME280;49858;48.956;9.076;2023-07-31T04:19:07;98690.22;;;16.43;100.00
63715;BME280;49858;48.956;9.076;2023-07-31T04:21:40;98677.16;;;16.76;100.00
63715;BME280;49858;48.956;9.076;2023-07-31T04:24:07;98697.72;;;16.25;100.00
63715;BME280;49858;48.956;9.076;2023-07-31T04:26:35;98685.84;;;16.96;100.00
63715;BME280;49858;48.956;9.076;2023-07-31T04:29:04;98679.41;;;17.38;100.00
63715;BME280;49858;48.956;9.076;2023-07-31T04:31:32;98682.38;;;17.94;100.00
63715;BME280;49858;48.956;9.076;2023-07-31T04:34:03;98690.78;;;18.46;100.00
63715;BME280;49858;48.956;9.076;2023-07-31T04:36:34;98679.31;;;18.33;100.00
63715;BME280;49858;48.956;9.076;2023-07-31T04:39:02;98675.41;;;18.27;100.00
63715;BME280;49858;48.956;9.076;2023-07-31T04:41:30;98678.28;;;18.12;100.00
63715;BME280;49858;48.956;9.076;2023-07-31T04:43:58;98676.22;;;17.36;100.00
63715;BME280;49858;48.956;9.076;2023-07-31T04:46:26;98680.91;;;17.60;100.00
63715;BME280;49858;48.956;9.076;2023-07-31T04:48:54;98669.50;;;18.18;100.00
63715;BME280;49858;48.956;9.076;2023-07-31T04:51:22;98672.41;;;18.55;100.00
63715;BME280;49858;48.956;9.076;2023-07-31T04:53:51;98664.81;;;18.59;100.00
63715;BME280;49858;48.956;9.076;2023-07-31T04:56:19;98668.41;;;18.01;100.00
63715;BME280;49858;48.956;9.076;2023-07-31T04:58:47;98671.78;;;18.30;100.00
63715;BME280;49858;48.956;9.076;2023-07-31T05:01:14;98667.06;;;18.23;100.00
63715;BME280;49858;48.956;9.076;2023-07-31T05:03:42;98657.59;;;18.65;100.00
63715;BME280;49858;48.956;9.076;2023-07-31T05:06:10;98644.03;;;18.71;100.00
63715;BME280;49858;48.956;9.076;2023-07-31T05:08:39;98651.16;;;18.76;100.00
63715;BME280;49858;48.956;9.076;2023-07-31T05:11:08;98651.41;;;18.92;100.00
63715;BME280;49858;48.956;9.076;2023-07-31T05:13:36;98643.81;;;18.93;100.00
63715;BME280;49858;48.956;9.076;2023-07-31T05:16:04;98647.59;;;18.72;100.00
63715;BME280;49858;48.956;9.076;2023-07-31T05:18:32;98647.69;;;18.05;100.00
63715;BME280;49858;48.956;9.076;2023-07-31T05:21:00;98654.34;;;18.26;100.00
63715;BME280;49858;48.956;9.076;2023-07-31T05:23:27;98650.75;;;18.77;100.00
63715;BME280;49858;48.956;9.076;2023-07-31T05:26:01;98651.25;;;18.09;100.00
63715;BME280;49858;48.956;9.076;2023-07-31T05:28:31;98656.97;;;17.84;100.00
63715;BME280;49858;48.956;9.076;2023-07-31T05:30:59;98649.06;;;17.69;100.00
63715;BME280;49858;48.956;9.076;2023-07-31T05:33:27;98654.91;;;17.96;100.00
63715;BME280;49858;48.956;9.076;2023-07-31T05:35:55;98650.38;;;17.39;100.00
63715;BME280;49858;48.956;9.076;2023-07-31T05:38:23;98653.13;;;17.50;100.00
63715;BME280;49858;48.956;9.076;2023-07-31T05:40:51;98649.06;;;17.69;100.00
63715;BME280;49858;48.956;9.076;2023-07-31T05:43:19;98652.63;;;17.80;100.00
63715;BME280;49858;48.956;9.076;2023-07-31T05:45:49;98662.38;;;17.15;100.00
63715;BME280;49858;48.956;9.076;2023-07-31T05:48:17;98661.88;;;17.48;100.00
63715;BME280;49858;48.956;9.076;2023-07-31T05:50:45;98656.72;;;17.50;100.00
63715;BME280;49858;48.956;9.076;2023-07-31T05:53:16;98652.25;;;17.63;100.00
63715;BME280;49858;48.956;9.076;2023-07-31T05:55:43;98650.44;;;17.32;100.00
63715;BME280;49858;48.956;9.076;2023-07-31T05:58:11;98659.41;;;17.68;100.00
63715;BME280;49858;48.956;9.076;2023-07-31T06:00:39;98649.41;;;17.85;100.00
63715;BME280;49858;48.956;9.076;2023-07-31T06:03:09;98647.84;;;17.84;100.00
63715;BME280;49858;48.956;9.076;2023-07-31T06:05:37;98648.91;;;18.04;100.00
63715;BME280;49858;48.956;9.076;2023-07-31T06:08:05;98640.81;;;18.21;100.00
63715;BME280;49858;48.956;9.076;2023-07-31T06:10:34;98642.09;;;18.12;100.00
63715;BME280;49858;48.956;9.076;2023-07-31T06:13:02;98649.72;;;18.53;100.00
63715;BME280;49858;48.956;9.076;2023-07-31T06:15:30;98643.81;;;18.44;100.00
63715;BME280;49858;48.956;9.076;2023-07-31T06:17:58;98647.66;;;18.64;100.00
63715;BME280;49858;48.956;9.076;2023-07-31T06:20:30;98659.03;;;18.36;100.00
63715;BME280;49858;48.956;9.076;2023-07-31T06:23:01;98653.25;;;18.61;100.00
63715;BME280;49858;48.956;9.076;2023-07-31T06:25:29;98646.53;;;18.55;100.00
63715;BME280;49858;48.956;9.076;2023-07-31T06:27:57;98649.91;;;18.80;100.00
63715;BME280;49858;48.956;9.076;2023-07-31T06:30:25;98646.00;;;18.67;100.00
63715;BME280;49858;48.956;9.076;2023-07-31T06:32:53;98645.06;;;18.88;100.00
63715;BME280;49858;48.956;9.076;2023-07-31T06:35:21;98638.25;;;19.30;100.00
63715;BME280;49858;48.956;9.076;2023-07-31T06:37:50;98631.28;;;19.11;100.00
63715;BME280;49858;48.956;9.076;2023-07-31T06:40:18;98641.41;;;19.29;100.00
63715;BME280;49858;48.956;9.076;2023-07-31T06:42:50;98640.97;;;19.68;100.00
63715;BME280;49858;48.956;9.076;2023-07-31T06:45:28;98644.69;;;19.58;100.00
63715;BME280;49858;48.956;9.076;2023-07-31T06:48:11;98639.44;;;19.63;100.00
63715;BME280;49858;48.956;9.076;2023-07-31T06:50:41;98633.63;;;19.47;100.00
63715;BME280;49858;48.956;9.076;2023-07-31T06:53:10;98634.78;;;19.84;100.00
63715;BME280;49858;48.956;9.076;2023-07-31T06:55:41;98640.00;;;19.82;100.00
63715;BME280;49858;48.956;9.076;2023-07-31T06:58:08;98641.63;;;19.45;100.00
63715;BME280;49858;48.956;9.076;2023-07-31T07:00:36;98625.78;;;19.73;100.00
63715;BME280;49858;48.956;9.076;2023-07-31T07:03:04;98632.16;;;20.00;100.00
63715;BME280;49858;48.956;9.076;2023-07-31T07:05:32;98625.97;;;19.85;100.00
63715;BME280;49858;48.956;9.076;2023-07-31T07:08:00;98639.22;;;20.08;100.00
63715;BME280;49858;48.956;9.076;2023-07-31T07:10:53;98630.66;;;19.65;100.00
63715;BME280;49858;48.956;9.076;2023-07-31T07:13:23;98627.72;;;20.03;100.00
63715;BME280;49858;48.956;9.076;2023-07-31T07:15:51;98616.69;;;19.96;100.00
63715;BME280;49858;48.956;9.076;2023-07-31T07:18:20;98615.72;;;20.33;100.00
63715;BME280;49858;48.956;9.076;2023-07-31T07:20:50;98621.25;;;20.60;100.00
63715;BME280;49858;48.956;9.076;2023-07-31T07:23:21;98621.84;;;20.95;100.00
63715;BME280;49858;48.956;9.076;2023-07-31T07:25:48;98615.94;;;20.19;100.00
63715;BME280;49858;48.956;9.076;2023-07-31T07:28:21;98603.59;;;20.66;100.00
63715;BME280;49858;48.956;9.076;2023-07-31T07:30:51;98611.06;;;20.23;100.00
63715;BME280;49858;48.956;9.076;2023-07-31T07:33:20;98619.63;;;20.35;100.00
63715;BME280;49858;48.956;9.076;2023-07-31T07:35:47;98618.41;;;20.36;100.00
63715;BME280;49858;48.956;9.076;2023-07-31T07:38:15;98613.09;;;20.92;100.00
63715;BME280;49858;48.956;9.076;2023-07-31T07:40:43;98621.63;;;20.85;100.00
63715;BME280;49858;48.956;9.076;2023-07-31T07:43:13;98606.69;;;20.92;100.00
63715;BME280;49858;48.956;9.076;2023-07-31T07:45:42;98618.91;;;20.58;100.00
63715;BME280;49858;48.956;9.076;2023-07-31T07:48:10;98601.88;;;20.73;100.00
63715;BME280;49858;48.956;9.076;2023-07-31T07:50:38;98607.31;;;21.03;100.00
63715;BME280;49858;48.956;9.076;2023-07-31T07:53:06;98606.22;;;21.17;100.00
63715;BME280;49858;48.956;9.076;2023-07-31T07:55:35;98621.09;;;20.20;100.00
63715;BME280;49858;48.956;9.076;2023-07-31T07:58:03;98609.09;;;20.70;100.00
63715;BME280;49858;48.956;9.076;2023-07-31T08:00:31;98600.16;;;20.79;100.00
63715;BME280;49858;48.956;9.076;2023-07-31T08:03:00;98597.13;;;21.13;100.00
63715;BME280;49858;48.956;9.076;2023-07-31T08:05:29;98606.81;;;21.08;100.00
63715;BME280;49858;48.956;9.076;2023-07-31T08:08:00;98594.75;;;21.11;100.00
63715;BME280;49858;48.956;9.076;2023-07-31T08:10:28;98591.84;;;21.75;100.00
63715;BME280;49858;48.956;9.076;2023-07-31T08:12:56;98604.94;;;22.63;100.00
63715;BME280;49858;48.956;9.076;2023-07-31T08:15:24;98594.09;;;21.63;100.00
63715;BME280;49858;48.956;9.076;2023-07-31T08:17:52;98596.09;;;21.99;100.00
63715;BME280;49858;48.956;9.076;2023-07-31T08:20:21;98595.25;;;21.06;100.00
63715;BME280;49858;48.956;9.076;2023-07-31T08:22:50;98587.41;;;20.78;100.00
63715;BME280;49858;48.956;9.076;2023-07-31T08:25:19;98581.78;;;21.41;100.00
63715;BME280;49858;48.956;9.076;2023-07-31T08:27:47;98585.59;;;22.03;100.00
63715;BME280;49858;48.956;9.076;2023-07-31T08:30:15;98589.31;;;22.33;100.00
63715;BME280;49858;48.956;9.076;2023-07-31T08:32:45;98599.03;;;20.96;100.00
63715;BME280;49858;48.956;9.076;2023-07-31T08:35:13;98586.97;;;21.59;100.00
63715;BME280;49858;48.956;9.076;2023-07-31T08:37:43;98584.94;;;21.43;100.00
63715;BME280;49858;48.956;9.076;2023-07-31T08:40:11;98592.44;;;21.66;100.00
63715;BME280;49858;48.956;9.076;2023-07-31T08:42:45;98591.72;;;21.02;100.00
63715;BME280;49858;48.956;9.076;2023-07-31T08:45:16;98593.78;;;20.98;100.00
63715;BME280;49858;48.956;9.076;2023-07-31T08:47:45;98586.50;;;21.44;100.00
63715;BME280;49858;48.956;9.076;2023-07-31T08:50:17;98592.88;;;21.25;100.00
63715;BME280;49858;48.956;9.076;2023-07-31T08:52:48;98575.03;;;20.99;100.00
63715;BME280;49858;48.956;9.076;2023-07-31T08:55:17;98580.41;;;22.02;100.00
63715;BME280;49858;48.956;9.076;2023-07-31T08:57:51;98572.75;;;21.13;100.00
63715;BME280;49858;48.956;9.076;2023-07-31T09:00:20;98569.91;;;21.89;100.00
63715;BME280;49858;48.956;9.076;2023-07-31T09:02:56;98556.81;;;22.03;100.00
63715;BME280;49858;48.956;9.076;2023-07-31T09:05:26;98579.16;;;22.23;100.00
63715;BME280;49858;48.956;9.076;2023-07-31T09:07:58;98566.84;;;22.00;100.00
63715;BME280;49858;48.956;9.076;2023-07-31T09:10:27;98566.34;;;22.38;100.00
63715;BME280;49858;48.956;9.076;2023-07-31T09:12:55;98566.47;;;22.80;100.00
63715;BME280;49858;48.956;9.076;2023-07-31T09:15:23;98575.31;;;21.97;100.00
63715;BME280;49858;48.956;9.076;2023-07-31T09:18:05;98568.94;;;21.96;100.00
63715;BME280;49858;48.956;9.076;2023-07-31T09:20:34;98560.88;;;23.09;100.00
63715;BME280;49858;48.956;9.076;2023-07-31T09:23:08;98552.53;;;23.47;100.00
63715;BME280;49858;48.956;9.076;2023-07-31T09:25:36;98563.97;;;22.04;100.00
63715;BME280;49858;48.956;9.076;2023-07-31T09:28:06;98559.25;;;21.48;100.00
63715;BME280;49858;48.956;9.076;2023-07-31T09:30:46;98552.72;;;22.40;100.00
63715;BME280;49858;48.956;9.076;2023-07-31T09:33:14;98557.88;;;21.56;100.00
63715;BME280;49858;48.956;9.076;2023-07-31T09:35:42;98546.88;;;21.65;100.00
63715;BME280;49858;48.956;9.076;2023-07-31T09:38:13;98541.72;;;21.44;100.00
63715;BME280;49858;48.956;9.076;2023-07-31T09:40:42;98532.34;;;22.52;100.00
63715;BME280;49858;48.956;9.076;2023-07-31T09:43:11;98535.50;;;22.05;100.00
63715;BME280;49858;48.956;9.076;2023-07-31T09:45:40;98528.16;;;22.44;100.00
63715;BME280;49858;48.956;9.076;2023-07-31T09:48:10;98533.59;;;21.69;100.00
63715;BME280;49858;48.956;9.076;2023-07-31T09:50:40;98527.81;;;21.40;100.00
63715;BME280;49858;48.956;9.076;2023-07-31T09:53:09;98528.78;;;21.34;100.00
63715;BME280;49858;48.956;9.076;2023-07-31T09:55:41;98528.00;;;22.02;100.00
63715;BME280;49858;48.956;9.076;2023-07-31T09:58:12;98520.56;;;22.74;100.00
63715;BME280;49858;48.956;9.076;2023-07-31T10:00:40;98524.84;;;22.00;100.00
63715;BME280;49858;48.956;9.076;2023-07-31T10:03:09;98519.78;;;21.79;100.00
63715;BME280;49858;48.956;9.076;2023-07-31T10:05:47;98519.41;;;22.42;100.00
63715;BME280;49858;48.956;9.076;2023-07-31T10:08:20;98501.41;;;22.27;100.00
63715;BME280;49858;48.956;9.076;2023-07-31T10:10:52;98508.03;;;22.49;100.00
63715;BME280;49858;48.956;9.076;2023-07-31T10:13:19;98502.78;;;23.22;100.00
63715;BME280;49858;48.956;9.076;2023-07-31T10:15:50;98509.84;;;22.56;100.00
63715;BME280;49858;48.956;9.076;2023-07-31T10:18:19;98500.88;;;22.61;100.00
63715;BME280;49858;48.956;9.076;2023-07-31T10:20:47;98513.09;;;22.38;100.00
63715;BME280;49858;48.956;9.076;2023-07-31T10:23:16;98501.50;;;22.23;100.00
63715;BME280;49858;48.956;9.076;2023-07-31T10:25:44;98504.38;;;22.03;100.00
63715;BME280;49858;48.956;9.076;2023-07-31T10:28:15;98491.59;;;22.18;100.00
63715;BME280;49858;48.956;9.076;2023-07-31T10:30:43;98483.09;;;22.22;100.00
63715;BME280;49858;48.956;9.076;2023-07-31T10:33:11;98483.97;;;21.70;100.00
63715;BME280;49858;48.956;9.076;2023-07-31T10:35:42;98488.25;;;22.40;100.00
63715;BME280;49858;48.956;9.076;2023-07-31T10:38:11;98488.47;;;22.16;100.00
63715;BME280;49858;48.956;9.076;2023-07-31T10:40:39;98482.56;;;22.27;100.00
63715;BME280;49858;48.956;9.076;2023-07-31T10:43:07;98490.84;;;22.47;100.00
63715;BME280;49858;48.956;9.076;2023-07-31T10:45:41;98505.94;;;22.20;100.00
63715;BME280;49858;48.956;9.076;2023-07-31T10:48:13;98490.34;;;22.36;100.00
63715;BME280;49858;48.956;9.076;2023-07-31T10:50:47;98479.84;;;22.98;100.00
63715;BME280;49858;48.956;9.076;2023-07-31T10:53:23;98488.19;;;22.85;100.00
63715;BME280;49858;48.956;9.076;2023-07-31T10:55:51;98493.13;;;23.36;100.00
63715;BME280;49858;48.956;9.076;2023-07-31T10:58:20;98488.56;;;23.00;100.00
63715;BME280;49858;48.956;9.076;2023-07-31T11:00:49;98477.41;;;23.26;100.00
63715;BME280;49858;48.956;9.076;2023-07-31T11:03:19;98462.91;;;23.02;100.00
63715;BME280;49858;48.956;9.076;2023-07-31T11:05:50;98461.59;;;23.57;100.00
63715;BME280;49858;48.956;9.076;2023-07-31T11:08:22;98487.69;;;22.74;100.00
63715;BME280;49858;48.956;9.076;2023-07-31T11:11:04;98463.94;;;23.20;100.00
63715;BME280;49858;48.956;9.076;2023-07-31T11:13:39;98480.53;;;23.28;100.00
63715;BME280;49858;48.956;9.076;2023-07-31T11:16:09;98467.25;;;22.90;100.00
63715;BME280;49858;48.956;9.076;2023-07-31T11:18:39;98469.00;;;22.84;100.00
63715;BME280;49858;48.956;9.076;2023-07-31T11:21:11;98468.53;;;22.73;100.00
63715;BME280;49858;48.956;9.076;2023-07-31T11:23:39;98465.28;;;22.74;100.00
63715;BME280;49858;48.956;9.076;2023-07-31T11:26:07;98453.72;;;23.27;100.00
63715;BME280;49858;48.956;9.076;2023-07-31T11:28:35;98464.38;;;23.32;100.00
63715;BME280;49858;48.956;9.076;2023-07-31T11:31:03;98464.25;;;23.23;100.00
63715;BME280;49858;48.956;9.076;2023-07-31T11:33:33;98455.59;;;23.04;100.00
63715;BME280;49858;48.956;9.076;2023-07-31T11:36:01;98450.00;;;23.04;100.00
63715;BME280;49858;48.956;9.076;2023-07-31T11:38:30;98440.09;;;23.00;100.00
63715;BME280;49858;48.956;9.076;2023-07-31T11:41:00;98452.69;;;22.66;100.00
63715;BME280;49858;48.956;9.076;2023-07-31T11:43:29;98445.16;;;22.63;100.00
63715;BME280;49858;48.956;9.076;2023-07-31T11:46:00;98447.75;;;22.99;100.00
63715;BME280;49858;48.956;9.076;2023-07-31T11:48:31;98440.59;;;23.75;100.00
63715;BME280;49858;48.956;9.076;2023-07-31T11:51:04;98431.56;;;24.40;100.00
63715;BME280;49858;48.956;9.076;2023-07-31T11:53:38;98429.94;;;24.04;100.00
63715;BME280;49858;48.956;9.076;2023-07-31T11:56:10;98431.38;;;23.36;100.00
63715;BME280;49858;48.956;9.076;2023-07-31T11:58:39;98421.69;;;23.88;100.00
63715;BME280;49858;48.956;9.076;2023-07-31T12:01:08;98411.00;;;24.30;100.00
63715;BME280;49858;48.956;9.076;2023-07-31T12:03:37;98418.13;;;23.75;100.00
63715;BME280;49858;48.956;9.076;2023-07-31T12:06:07;98416.56;;;23.74;100.00
63715;BME280;49858;48.956;9.076;2023-07-31T12:08:36;98439.88;;;22.94;100.00
63715;BME280;49858;48.956;9.076;2023-07-31T12:11:05;98410.75;;;23.30;100.00
63715;BME280;49858;48.956;9.076;2023-07-31T12:13:33;98412.94;;;23.60;100.00
63715;BME280;49858;48.956;9.076;2023-07-31T12:16:04;98426.63;;;22.94;100.00
63715;BME280;49858;48.956;9.076;2023-07-31T12:18:35;98405.19;;;22.88;100.00
63715;BME280;49858;48.956;9.076;2023-07-31T12:21:07;98417.47;;;23.45;100.00
63715;BME280;49858;48.956;9.076;2023-07-31T12:23:36;98404.53;;;23.47;100.00
63715;BME280;49858;48.956;9.076;2023-07-31T12:26:06;98409.47;;;23.82;100.00
63715;BME280;49858;48.956;9.076;2023-07-31T12:28:38;98392.66;;;23.43;100.00
63715;BME280;49858;48.956;9.076;2023-07-31T12:31:09;98400.94;;;23.09;100.00
63715;BME280;49858;48.956;9.076;2023-07-31T12:33:40;98398.50;;;23.49;100.00
63715;BME280;49858;48.956;9.076;2023-07-31T12:36:11;98388.50;;;22.97;100.00
63715;BME280;49858;48.956;9.076;2023-07-31T12:38:40;98390.59;;;23.57;100.00
63715;BME280;49858;48.956;9.076;2023-07-31T12:41:08;98393.91;;;23.17;100.00
63715;BME280;49858;48.956;9.076;2023-07-31T12:43:37;98382.22;;;23.44;100.00
63715;BME280;49858;48.956;9.076;2023-07-31T12:46:05;98383.75;;;23.70;100.00
63715;BME280;49858;48.956;9.076;2023-07-31T12:48:35;98381.44;;;23.43;100.00
63715;BME280;49858;48.956;9.076;2023-07-31T12:51:06;98373.00;;;23.05;100.00
63715;BME280;49858;48.956;9.076;2023-07-31T12:53:36;98369.28;;;23.72;100.00
63715;BME280;49858;48.956;9.076;2023-07-31T12:56:04;98365.09;;;22.75;100.00
63715;BME280;49858;48.956;9.076;2023-07-31T12:58:32;98354.72;;;23.39;100.00
63715;BME280;49858;48.956;9.076;2023-07-31T13:01:00;98357.63;;;23.48;100.00